Time;durP1;ratioP1;P1;durP2;ratioP2;P2;SDS_P1;SDS_P2;PMS_P1;PMS_P2;Temp;Humidity;BMP_temperature;BMP_pressure;BME280_temperature;BME280_humidity;BME280_pressure;Samples;Min_cycle;Max_cycle;Signal;HPM_P1;HPM_P2
2021/04/14 00:00:48;;;;;;;5.50;4.50;;;-0.40;1.00;;;;;;5075790;28;20612;-47
2021/04/14 00:03:19;;;;;;;8.40;5.10;;;-0.30;55.40;;;;;;5066392;28;20466;-44
2021/04/14 00:05:46;;;;;;;5.60;3.63;;;-0.30;99.90;;;;;;5078139;28;20500;-43
2021/04/14 00:08:15;;;;;;;6.20;3.47;;;-0.30;99.90;;;;;;5081677;28;20492;-46
2021/04/14 00:10:42;;;;;;;4.37;3.97;;;-0.30;99.90;;;;;;5077552;28;20470;-47
2021/04/14 00:13:11;;;;;;;4.50;4.10;;;-0.30;99.90;;;;;;5080080;28;20514;-48
2021/04/14 00:15:43;;;;;;;5.57;3.83;;;-0.40;99.90;;;;;;5076272;28;20948;-43
2021/04/14 00:18:10;;;;;;;5.63;4.20;;;-0.40;1.00;;;;;;5090697;28;20889;-43
2021/04/14 00:20:37;;;;;;;6.53;3.93;;;-0.50;1.00;;;;;;5072544;28;20491;-43
2021/04/14 00:23:06;;;;;;;6.90;4.30;;;-0.50;99.90;;;;;;5079881;28;20457;-47
2021/04/14 00:25:35;;;;;;;6.47;3.93;;;-0.60;99.90;;;;;;5073914;28;20515;-47
2021/04/14 00:28:03;;;;;;;6.00;4.73;;;-0.60;1.00;;;;;;5072208;28;20485;-47
2021/04/14 00:30:34;;;;;;;4.40;4.00;;;-0.60;99.90;;;;;;5074973;28;20506;-42
2021/04/14 00:33:00;;;;;;;9.30;3.90;;;-0.60;99.90;;;;;;5080276;28;20468;-43
2021/04/14 00:35:29;;;;;;;7.20;4.40;;;-0.60;99.90;;;;;;5083224;28;20900;-43
2021/04/14 00:37:56;;;;;;;6.00;4.10;;;-0.60;1.00;;;;;;5071327;28;20459;-43
2021/04/14 00:40:25;;;;;;;4.20;3.50;;;-0.60;99.90;;;;;;5082997;28;20525;-44
2021/04/14 00:42:54;;;;;;;7.20;4.67;;;-0.70;99.90;;;;;;5079657;28;20465;-45
2021/04/14 00:45:25;;;;;;;6.10;3.77;;;-0.70;1.00;;;;;;5079145;28;20761;-46
2021/04/14 00:47:53;;;;;;;5.53;3.53;;;-0.70;1.00;;;;;;5071165;28;20468;-49
2021/04/14 00:50:23;;;;;;;4.10;3.70;;;-0.60;1.00;;;;;;5065424;28;20475;-44
2021/04/14 00:52:53;;;;;;;4.60;3.90;;;-0.70;99.90;;;;;;5072685;28;20531;-43
2021/04/14 00:55:23;;;;;;;10.97;4.60;;;-0.80;1.00;;;;;;5076517;28;20462;-49
2021/04/14 00:57:50;;;;;;;5.47;3.83;;;-0.90;75.70;;;;;;5076857;28;20522;-42
2021/04/14 01:00:28;;;;;;;6.77;3.77;;;-1.00;1.00;;;;;;5070888;28;20543;-44
2021/04/14 01:02:54;;;;;;;6.60;4.90;;;-1.00;99.90;;;;;;5080810;28;20456;-46
2021/04/14 01:05:21;;;;;;;7.40;4.50;;;-0.90;1.00;;;;;;5073861;28;20465;-43
2021/04/14 01:07:48;;;;;;;7.90;4.70;;;-0.90;99.90;;;;;;5073794;28;20958;-46
2021/04/14 01:10:19;;;;;;;4.63;3.90;;;-0.90;99.90;;;;;;5067520;28;20466;-42
2021/04/14 01:12:46;;;;;;;6.30;3.87;;;-0.90;99.90;;;;;;5080909;28;20461;-46
2021/04/14 01:15:17;;;;;;;4.53;4.10;;;-0.90;99.90;;;;;;5070761;28;20817;-48
2021/04/14 01:17:44;;;;;;;4.20;3.30;;;-0.90;99.90;;;;;;5067144;28;20458;-46
2021/04/14 01:20:13;;;;;;;6.97;4.23;;;-1.00;99.90;;;;;;5061487;28;20462;-45
2021/04/14 01:22:41;;;;;;;4.40;4.00;;;-1.00;1.00;;;;;;5086765;28;20464;-46
2021/04/14 01:25:09;;;;;;;6.60;4.80;;;-1.00;99.90;;;;;;5065473;28;20470;-44
2021/04/14 01:27:36;;;;;;;6.20;3.40;;;-1.00;1.00;;;;;;5078857;28;20469;-46
2021/04/14 01:30:10;;;;;;;6.87;4.63;;;-1.00;99.90;;;;;;5071805;28;20519;-41
2021/04/14 01:32:37;;;;;;;6.30;3.90;;;-1.00;99.90;;;;;;5093265;28;20490;-46
2021/04/14 01:35:09;;;;;;;7.43;4.23;;;-1.00;1.00;;;;;;5076454;28;20840;-42
2021/04/14 01:37:38;;;;;;;5.27;3.90;;;-1.10;1.00;;;;;;5075915;28;20864;-44
2021/04/14 01:40:10;;;;;;;9.23;3.90;;;-1.10;1.00;;;;;;5073800;28;20834;-43
2021/04/14 01:42:37;;;;;;;7.00;4.77;;;-1.10;1.00;;;;;;5059091;28;20449;-45
2021/04/14 01:45:05;;;;;;;4.57;3.87;;;-1.10;99.90;;;;;;5084494;28;20461;-46
2021/04/14 01:47:34;;;;;;;4.47;4.03;;;-1.10;1.00;;;;;;5087316;28;20458;-46
2021/04/14 01:50:01;;;;;;;9.77;4.17;;;-1.20;99.90;;;;;;5073485;28;20729;-43
2021/04/14 01:52:27;;;;;;;4.60;3.67;;;-1.20;21.40;;;;;;5064511;28;20465;-43
2021/04/14 01:54:54;;;;;;;5.37;3.87;;;-1.20;1.00;;;;;;5075751;28;20519;-44
2021/04/14 01:57:24;;;;;;;5.10;4.03;;;-1.30;1.00;;;;;;5065623;28;20498;-42
2021/04/14 01:59:52;;;;;;;5.53;4.60;;;-1.30;1.00;;;;;;5070302;28;20587;-46
2021/04/14 02:02:19;;;;;;;5.07;4.57;;;-1.40;1.00;;;;;;5066751;28;20495;-44
2021/04/14 02:04:45;;;;;;;5.90;4.47;;;-1.40;99.90;;;;;;5070820;28;20504;-43
2021/04/14 02:07:12;;;;;;;9.37;4.17;;;-1.40;99.90;;;;;;5078156;28;20776;-44
2021/04/14 02:09:38;;;;;;;7.20;4.70;;;-1.30;1.00;;;;;;5077826;28;20489;-46
2021/04/14 02:12:07;;;;;;;7.77;4.30;;;-1.30;99.90;;;;;;5081534;28;20464;-44
2021/04/14 02:14:37;;;;;;;6.53;4.13;;;-1.30;1.00;;;;;;5078126;28;20462;-44
2021/04/14 02:17:07;;;;;;;6.67;4.20;;;-1.30;1.00;;;;;;5082480;28;20453;-43
2021/04/14 02:19:33;;;;;;;6.27;4.00;;;-1.40;1.00;;;;;;5098174;28;20464;-42
2021/04/14 02:22:05;;;;;;;6.60;4.20;;;-1.40;1.00;;;;;;5086253;28;20461;-45
2021/04/14 02:24:31;;;;;;;7.47;4.30;;;-1.40;99.90;;;;;;5073560;28;20523;-43
2021/04/14 02:27:00;;;;;;;6.07;3.67;;;-1.40;1.00;;;;;;5089438;28;20468;-42
2021/04/14 02:29:26;;;;;;;5.77;3.90;;;-1.50;99.90;;;;;;5077480;28;20493;-42
2021/04/14 02:31:54;;;;;;;6.67;4.20;;;-1.60;99.90;;;;;;5081016;28;20465;-43
2021/04/14 02:34:20;;;;;;;6.17;3.93;;;-1.60;99.90;;;;;;5071681;28;20592;-43
2021/04/14 02:36:47;;;;;;;6.73;4.23;;;-1.60;99.90;;;;;;5071097;28;20530;-45
2021/04/14 02:39:17;;;;;;;5.27;4.30;;;-1.60;1.00;;;;;;5077861;28;20466;-45
2021/04/14 02:41:44;;;;;;;6.13;4.60;;;-1.60;1.00;;;;;;5064949;28;20474;-43
2021/04/14 02:44:11;;;;;;;5.83;5.23;;;-1.70;1.00;;;;;;5072525;28;20497;-43
2021/04/14 02:46:41;;;;;;;10.57;5.03;;;-1.80;99.90;;;;;;5058213;28;20469;-42
2021/04/14 02:49:11;;;;;;;9.27;5.10;;;-1.70;99.90;;;;;;5073700;28;20485;-42
2021/04/14 02:51:39;;;;;;;6.50;4.27;;;-1.70;1.00;;;;;;5073192;28;20458;-48
2021/04/14 02:54:07;;;;;;;5.37;4.23;;;-1.60;1.00;;;;;;5066894;28;20482;-42
2021/04/14 02:56:33;;;;;;;6.20;4.90;;;-1.60;1.00;;;;;;5062715;28;20552;-43
2021/04/14 02:59:01;;;;;;;7.20;5.80;;;-1.70;1.00;;;;;;5069261;28;20462;-41
2021/04/14 03:01:31;;;;;;;6.77;6.13;;;-1.80;99.90;;;;;;5065049;28;20461;-42
2021/04/14 03:03:57;;;;;;;7.00;5.90;;;-1.80;5.50;;;;;;5072784;28;22881;-41
2021/04/14 03:06:27;;;;;;;6.23;5.60;;;-1.80;1.00;;;;;;5079165;28;20908;-44
2021/04/14 03:08:57;;;;;;;5.67;5.07;;;-1.90;1.00;;;;;;5076751;28;20481;-46
2021/04/14 03:11:23;;;;;;;9.43;5.57;;;-1.90;13.20;;;;;;5074483;28;20462;-42
2021/04/14 03:13:50;;;;;;;6.70;5.10;;;-1.90;1.00;;;;;;5080849;28;20458;-41
2021/04/14 03:16:16;;;;;;;6.00;5.20;;;-1.80;99.90;;;;;;5066078;28;20775;-53
2021/04/14 03:18:43;;;;;;;11.70;5.37;;;-1.60;1.00;;;;;;5056998;28;20458;-40
2021/04/14 03:21:12;;;;;;;5.83;4.70;;;-1.70;1.00;;;;;;5063287;28;20473;-42
2021/04/14 03:23:40;;;;;;;8.90;5.87;;;-1.70;1.00;;;;;;5068000;28;20481;-40
2021/04/14 03:26:06;;;;;;;7.17;5.10;;;-1.70;1.00;;;;;;5073693;28;20469;-44
2021/04/14 03:28:35;;;;;;;7.43;4.83;;;-1.80;1.00;;;;;;5067569;28;20525;-44
2021/04/14 03:31:01;;;;;;;6.40;4.30;;;-1.80;99.90;;;;;;5076407;28;20959;-40
2021/04/14 03:33:28;;;;;;;5.37;4.50;;;-1.90;99.90;;;;;;5070711;28;20470;-41
2021/04/14 03:35:54;;;;;;;5.13;4.13;;;-1.90;99.90;;;;;;5077117;28;20474;-41
2021/04/14 03:38:21;;;;;;;8.40;4.90;;;-1.90;1.00;;;;;;5075791;28;20470;-42
2021/04/14 03:40:49;;;;;;;6.17;5.57;;;-1.90;99.90;;;;;;5080069;28;20466;-43
2021/04/14 03:43:15;;;;;;;5.17;4.77;;;-1.80;99.90;;;;;;5068503;28;20894;-42
2021/04/14 03:45:43;;;;;;;13.03;6.37;;;-1.70;1.00;;;;;;5071921;28;20528;-41
2021/04/14 03:48:11;;;;;;;11.80;6.57;;;-1.60;94.00;;;;;;5078041;28;20481;-42
2021/04/14 03:50:38;;;;;;;9.20;5.87;;;-1.60;99.90;;;;;;5074983;28;20469;-42
2021/04/14 03:53:11;;;;;;;11.07;6.73;;;-1.60;99.90;;;;;;5078554;28;20456;-41
2021/04/14 03:55:38;;;;;;;11.20;6.00;;;-1.70;29.60;;;;;;5068404;28;20472;-45
2021/04/14 03:58:05;;;;;;;7.10;5.17;;;-1.70;4.40;;;;;;5078731;28;20482;-43
2021/04/14 04:00:35;;;;;;;6.40;5.07;;;-1.80;1.00;;;;;;5088542;28;20485;-45
2021/04/14 04:03:02;;;;;;;6.23;4.83;;;-1.80;1.00;;;;;;5076462;28;20468;-41
2021/04/14 04:05:28;;;;;;;6.80;4.73;;;-1.80;1.00;;;;;;5073962;28;20978;-43
2021/04/14 04:07:58;;;;;;;6.33;4.43;;;-1.80;1.00;;;;;;5081121;28;20550;-41
2021/04/14 04:10:24;;;;;;;5.87;5.13;;;-1.80;60.80;;;;;;5057243;28;20466;-42
2021/04/14 04:12:51;;;;;;;8.77;4.60;;;-1.70;99.90;;;;;;5080472;28;20565;-42
2021/04/14 04:15:19;;;;;;;8.50;5.43;;;-1.70;50.80;;;;;;5079892;28;20460;-46
2021/04/14 04:17:45;;;;;;;11.37;4.73;;;-1.80;42.60;;;;;;5093780;28;20467;-43
2021/04/14 04:20:13;;;;;;;8.70;5.67;;;-1.70;85.50;;;;;;5095501;28;20921;-43
2021/04/14 04:22:40;;;;;;;8.30;5.53;;;-1.70;99.90;;;;;;5077139;28;20468;-49
2021/04/14 04:25:08;;;;;;;6.20;4.87;;;-1.70;99.90;;;;;;5077712;28;20478;-43
2021/04/14 04:27:34;;;;;;;5.60;4.40;;;-1.60;99.90;;;;;;5068452;28;20470;-46
2021/04/14 04:30:01;;;;;;;4.87;4.30;;;-1.60;99.90;;;;;;5084413;28;20461;-45
2021/04/14 04:32:28;;;;;;;8.27;5.80;;;-1.70;99.90;;;;;;5074470;28;20497;-46
2021/04/14 04:34:55;;;;;;;8.40;5.43;;;-1.70;99.90;;;;;;5071308;28;20474;-45
2021/04/14 04:37:24;;;;;;;6.67;6.00;;;-1.70;99.90;;;;;;5073944;28;20516;-42
2021/04/14 04:39:50;;;;;;;8.40;7.10;;;-1.70;59.70;;;;;;5061635;28;20466;-42
2021/04/14 04:42:17;;;;;;;8.57;7.07;;;-1.80;1.00;;;;;;5075939;28;20909;-46
2021/04/14 04:44:43;;;;;;;7.40;5.80;;;-1.80;1.00;;;;;;5072753;28;20469;-44
2021/04/14 04:47:13;;;;;;;8.50;5.60;;;-1.80;1.00;;;;;;5066856;28;20470;-46
2021/04/14 04:49:40;;;;;;;6.07;5.47;;;-1.80;1.00;;;;;;5076255;28;20486;-43
2021/04/14 04:52:07;;;;;;;5.40;4.73;;;-1.70;1.00;;;;;;5063253;28;20492;-41
2021/04/14 04:54:34;;;;;;;9.77;5.30;;;-1.60;1.00;;;;;;5078417;28;20473;-43
2021/04/14 04:57:01;;;;;;;6.93;5.50;;;-1.70;1.00;;;;;;5062335;28;20470;-43
2021/04/14 04:59:29;;;;;;;8.80;6.23;;;-1.70;1.00;;;;;;5066874;28;20486;-41
2021/04/14 05:01:58;;;;;;;12.83;6.17;;;-1.70;46.80;;;;;;5067457;28;20492;-44
2021/04/14 05:04:25;;;;;;;7.57;5.70;;;-1.70;99.90;;;;;;5070540;28;20440;-44
2021/04/14 05:06:55;;;;;;;9.60;6.07;;;-1.70;99.90;;;;;;5076195;28;20457;-45
2021/04/14 05:09:22;;;;;;;9.33;5.30;;;-1.70;99.90;;;;;;5069761;28;20494;-41
2021/04/14 05:11:48;;;;;;;7.80;5.30;;;-1.70;99.90;;;;;;5063961;28;20461;-43
2021/04/14 05:14:15;;;;;;;12.20;4.93;;;-1.60;27.90;;;;;;5075782;28;20465;-43
2021/04/14 05:16:43;;;;;;;10.83;6.07;;;-1.60;3.80;;;;;;5087808;28;20518;-42
2021/04/14 05:19:10;;;;;;;7.67;6.20;;;-1.50;1.00;;;;;;5062316;28;20484;-43
2021/04/14 05:21:39;;;;;;;6.73;5.33;;;-1.50;1.00;;;;;;5078940;28;20477;-47
2021/04/14 05:24:09;;;;;;;8.20;5.97;;;-1.50;1.00;;;;;;5081402;28;20473;-45
2021/04/14 05:26:36;;;;;;;8.00;5.87;;;-1.50;1.00;;;;;;5068523;28;20470;-40
2021/04/14 05:29:03;;;;;;;6.50;5.53;;;-1.40;1.00;;;;;;5070008;28;20584;-47
2021/04/14 05:31:30;;;;;;;8.73;5.90;;;-1.30;1.00;;;;;;5065896;28;20519;-43
2021/04/14 05:33:57;;;;;;;13.60;8.83;;;-1.20;1.00;;;;;;5068779;28;20461;-45
2021/04/14 05:36:25;;;;;;;59.47;32.47;;;-1.10;1.00;;;;;;5072085;28;20470;-42
2021/04/14 05:38:52;;;;;;;46.23;23.23;;;-1.00;99.90;;;;;;5080564;28;20465;-41
2021/04/14 05:41:20;;;;;;;46.33;22.43;;;-1.00;99.90;;;;;;5067066;28;20465;-49
2021/04/14 05:43:48;;;;;;;37.37;21.47;;;-0.90;62.20;;;;;;5066871;28;20466;-44
2021/04/14 05:46:17;;;;;;;12.63;7.50;;;-0.80;1.00;;;;;;5078307;28;20487;-46
2021/04/14 05:48:45;;;;;;;12.47;6.80;;;-0.80;1.00;;;;;;5075448;28;20493;-45
2021/04/14 05:51:14;;;;;;;12.07;6.40;;;-0.80;1.00;;;;;;5075221;28;20458;-41
2021/04/14 05:53:41;;;;;;;15.40;7.60;;;-0.80;1.00;;;;;;5079621;28;20761;-42
2021/04/14 05:56:09;;;;;;;18.67;13.47;;;-0.70;99.90;;;;;;5075235;28;20458;-42
2021/04/14 05:58:37;;;;;;;80.83;49.03;;;-0.60;99.90;;;;;;5077580;28;20439;-43
2021/04/14 06:01:05;;;;;;;44.90;29.80;;;-0.40;99.90;;;;;;5073914;28;20989;-42
2021/04/14 06:03:32;;;;;;;13.30;9.67;;;-0.20;99.90;;;;;;5072669;28;20473;-45
2021/04/14 06:06:00;;;;;;;10.40;8.40;;;-0.10;99.90;;;;;;5073950;28;20898;-43
2021/04/14 06:08:33;;;;;;;16.83;9.17;;;0.00;99.90;;;;;;5076477;28;20500;-51
2021/04/14 06:11:02;;;;;;;15.63;8.70;;;0.10;1.00;;;;;;5081594;28;20483;-41
2021/04/14 06:13:30;;;;;;;18.03;9.83;;;0.30;99.90;;;;;;5079388;28;20465;-43
2021/04/14 06:15:59;;;;;;;13.93;8.20;;;0.50;99.90;;;;;;5095539;28;20468;-45
2021/04/14 06:18:26;;;;;;;11.50;8.03;;;0.60;1.00;;;;;;5078930;28;20462;-45
2021/04/14 06:20:53;;;;;;;12.83;8.40;;;0.80;44.60;;;;;;5077789;28;20866;-42
2021/04/14 06:23:21;;;;;;;15.97;9.73;;;1.00;1.00;;;;;;5086715;28;20469;-47
2021/04/14 06:25:57;;;;;;;13.70;9.17;;;1.30;1.00;;;;;;5067261;28;20466;-44
2021/04/14 06:28:24;;;;;;;13.60;9.83;;;1.50;99.90;;;;;;5084767;28;20778;-46
2021/04/14 06:30:53;;;;;;;14.77;9.60;;;1.90;99.90;;;;;;5067608;28;20576;-45
2021/04/14 06:33:22;;;;;;;17.23;9.83;;;2.20;99.90;;;;;;5071081;28;20943;-49
2021/04/14 06:35:50;;;;;;;14.70;9.10;;;2.40;1.00;;;;;;5067141;28;20458;-44
2021/04/14 06:38:19;;;;;;;19.27;9.93;;;2.80;1.00;;;;;;5063550;28;20462;-45
2021/04/14 06:41:07;;;;;;;11.00;8.80;;;3.00;1.00;;;;;;5062468;28;20492;-44
2021/04/14 06:43:43;;;;;;;15.47;9.30;;;3.00;1.00;;;;;;5075025;28;20450;-48
2021/04/14 06:46:14;;;;;;;19.80;9.97;;;3.20;1.00;;;;;;5068741;28;20536;-46
2021/04/14 06:48:54;;;;;;;16.67;9.00;;;3.40;1.00;;;;;;5072649;28;20494;-44
2021/04/14 06:51:28;;;;;;;18.07;9.30;;;3.40;1.00;;;;;;5071381;28;20740;-47
2021/04/14 06:54:05;;;;;;;18.53;8.60;;;3.70;1.00;;;;;;5077258;28;20539;-48
2021/04/14 06:56:32;;;;;;;27.63;9.00;;;4.10;1.00;;;;;;5070300;28;20457;-50
2021/04/14 06:59:02;;;;;;;10.47;7.97;;;4.50;1.00;;;;;;5067337;28;20475;-45
2021/04/14 07:01:35;;;;;;;12.83;8.90;;;4.80;1.00;;;;;;5068044;28;20517;-48
2021/04/14 07:04:08;;;;;;;9.93;7.60;;;5.20;1.00;;;;;;5070600;28;23497;-46
2021/04/14 07:06:38;;;;;;;13.03;8.67;;;5.30;1.00;;;;;;5074364;28;20481;-48
2021/04/14 07:09:18;;;;;;;12.40;8.10;;;5.60;1.00;;;;;;5075308;28;20476;-48
2021/04/14 07:11:47;;;;;;;12.43;7.80;;;6.20;1.00;;;;;;5076523;28;20814;-50
2021/04/14 07:14:17;;;;;;;10.73;7.87;;;6.70;1.00;;;;;;5074286;28;20465;-49
2021/04/14 07:17:08;;;;;;;14.30;9.07;;;6.90;99.90;;;;;;5077217;28;20472;-47
2021/04/14 07:19:54;;;;;;;11.93;9.63;;;7.40;99.90;;;;;;5065486;28;20470;-47
2021/04/14 07:22:31;;;;;;;11.60;8.20;;;7.50;99.90;;;;;;5069280;28;20524;-46
2021/04/14 07:25:02;;;;;;;16.50;9.40;;;7.70;99.90;;;;;;5068135;28;20461;-48
2021/04/14 07:27:37;;;;;;;11.53;8.30;;;7.60;99.90;;;;;;5069839;28;20456;-50
2021/04/14 07:30:09;;;;;;;9.07;8.00;;;7.70;99.90;;;;;;5062678;28;20486;-44
2021/04/14 07:32:42;;;;;;;12.37;8.97;;;8.30;99.90;;;;;;5068033;28;20990;-48
2021/04/14 07:35:18;;;;;;;11.90;8.00;;;8.80;99.90;;;;;;5076904;28;20458;-49
2021/04/14 07:37:56;;;;;;;14.57;8.57;;;8.50;99.90;;;;;;5070337;28;20769;-47
2021/04/14 07:40:27;;;;;;;10.37;8.40;;;8.40;99.90;;;;;;5064827;28;20469;-47
2021/04/14 07:43:04;;;;;;;13.47;8.20;;;8.20;99.90;;;;;;5066501;28;20449;-45
2021/04/14 07:45:34;;;;;;;9.80;8.10;;;7.80;99.90;;;;;;5076701;28;20489;-48
2021/04/14 07:48:05;;;;;;;12.27;8.73;;;7.80;99.90;;;;;;5071799;28;20467;-47
2021/04/14 07:50:37;;;;;;;16.60;11.67;;;7.40;99.90;;;;;;5068748;28;20457;-48
2021/04/14 07:53:15;;;;;;;15.43;12.90;;;7.30;99.90;;;;;;5074274;28;20897;-50
2021/04/14 07:55:41;;;;;;;13.47;11.43;;;7.40;99.90;;;;;;5067697;28;20441;-45
2021/04/14 07:58:10;;;;;;;16.13;11.37;;;7.50;99.90;;;;;;5072958;28;20510;-50
2021/04/14 08:00:39;;;;;;;11.83;10.60;;;7.00;99.90;;;;;;5072581;28;20492;-48
2021/04/14 08:03:11;;;;;;;10.60;9.60;;;6.80;99.90;;;;;;5064384;28;20465;-45
2021/04/14 08:05:39;;;;;;;14.10;10.97;;;6.60;99.90;;;;;;5069042;28;20470;-46
2021/04/14 08:08:21;;;;;;;15.90;12.00;;;6.60;99.90;;;;;;5078716;28;20762;-44
2021/04/14 08:11:00;;;;;;;13.90;10.07;;;6.40;99.90;;;;;;5064199;28;20432;-51
2021/04/14 08:13:31;;;;;;;10.87;8.60;;;6.40;99.90;;;;;;5078286;28;20555;-44
2021/04/14 08:16:12;;;;;;;9.33;8.03;;;6.10;99.90;;;;;;5079516;28;20889;-45
2021/04/14 08:18:48;;;;;;;13.40;7.57;;;5.60;99.90;;;;;;5068647;28;20461;-48
2021/04/14 08:21:27;;;;;;;14.23;9.13;;;5.10;99.90;;;;;;5074379;28;20959;-45
2021/04/14 08:23:55;;;;;;;11.03;8.67;;;4.70;99.90;;;;;;5066226;28;20757;-48
2021/04/14 08:26:22;;;;;;;10.60;9.50;;;4.50;1.00;;;;;;5080170;28;20468;-44
2021/04/14 08:28:50;;;;;;;10.53;9.43;;;4.50;1.00;;;;;;5073951;28;20502;-45
2021/04/14 08:31:23;;;;;;;9.60;8.70;;;4.30;1.00;;;;;;5079646;28;20491;-45
2021/04/14 08:33:53;;;;;;;12.30;9.80;;;4.20;1.00;;;;;;5078675;28;20890;-50
2021/04/14 08:36:34;;;;;;;13.90;10.53;;;4.30;1.00;;;;;;5070502;28;20515;-44
2021/04/14 08:39:15;;;;;;;11.40;9.90;;;4.30;1.00;;;;;;5070895;28;20458;-44
2021/04/14 08:41:42;;;;;;;13.50;12.10;;;4.20;1.00;;;;;;5074504;28;20492;-44
2021/04/14 08:44:12;;;;;;;16.63;11.67;;;4.30;1.00;;;;;;5072781;28;20457;-48
2021/04/14 08:46:41;;;;;;;16.23;11.57;;;4.50;1.00;;;;;;5075323;28;20469;-44
2021/04/14 08:49:14;;;;;;;14.17;12.47;;;4.70;1.00;;;;;;5071463;28;20464;-45
2021/04/14 08:51:46;;;;;;;20.83;11.87;;;4.90;1.00;;;;;;5068604;28;20890;-44
2021/04/14 08:54:15;;;;;;;17.70;11.67;;;5.10;1.00;;;;;;5078020;28;20469;-48
2021/04/14 08:56:43;;;;;;;13.93;12.43;;;5.10;1.00;;;;;;5079682;28;20551;-45
2021/04/14 08:59:11;;;;;;;13.40;12.10;;;5.30;1.00;;;;;;5075421;28;20464;-44
2021/04/14 09:01:38;;;;;;;15.40;10.93;;;6.00;1.00;;;;;;5077491;28;20877;-45
2021/04/14 09:04:08;;;;;;;12.67;10.77;;;7.00;1.00;;;;;;5066494;28;20790;-49
2021/04/14 09:06:38;;;;;;;12.60;11.40;;;8.20;1.00;;;;;;5085055;28;20454;-48
2021/04/14 09:09:07;;;;;;;12.17;10.97;;;9.10;99.90;;;;;;5074098;28;20579;-52
2021/04/14 09:11:35;;;;;;;14.27;11.23;;;9.80;99.90;;;;;;5074031;28;20472;-48
2021/04/14 09:14:07;;;;;;;12.80;11.50;;;10.20;99.90;;;;;;5079288;28;20465;-51
2021/04/14 09:16:38;;;;;;;13.90;11.77;;;10.80;99.90;;;;;;5075411;28;20923;-47
2021/04/14 09:19:12;;;;;;;13.50;12.30;;;11.30;99.90;;;;;;5067511;28;20432;-44
2021/04/14 09:21:47;;;;;;;14.07;12.47;;;11.60;99.90;;;;;;5069764;28;20510;-48
2021/04/14 09:24:34;;;;;;;14.77;13.27;;;11.50;99.90;;;;;;5066518;28;20457;-52
2021/04/14 09:27:09;;;;;;;14.20;12.93;;;11.70;99.90;;;;;;5060056;28;20791;-45
2021/04/14 09:29:53;;;;;;;13.13;11.83;;;12.20;99.90;;;;;;5072027;28;20933;-47
2021/04/14 09:32:39;;;;;;;13.40;12.00;;;11.80;99.90;;;;;;5069604;28;20476;-52
2021/04/14 09:35:16;;;;;;;14.10;12.70;;;12.10;99.90;;;;;;5074636;28;20602;-47
2021/04/14 09:37:43;;;;;;;13.03;11.80;;;10.80;99.90;;;;;;5064458;28;20468;-46
2021/04/14 09:40:25;;;;;;;13.33;11.80;;;10.10;99.90;;;;;;5075240;28;20458;-45
2021/04/14 09:42:52;;;;;;;13.13;11.93;;;9.80;99.90;;;;;;5079119;28;20538;-45
2021/04/14 09:45:37;;;;;;;12.30;11.10;;;9.90;99.90;;;;;;5075961;28;20469;-46
2021/04/14 09:48:19;;;;;;;11.47;10.43;;;9.40;99.90;;;;;;5075068;28;20492;-50
2021/04/14 09:50:47;;;;;;;13.37;9.80;;;8.60;99.90;;;;;;5072322;28;20762;-46
2021/04/14 09:53:30;;;;;;;11.73;10.60;;;8.70;99.90;;;;;;5076110;28;20544;-49
2021/04/14 09:56:03;;;;;;;11.73;10.63;;;9.50;99.90;;;;;;5077073;28;20466;-46
2021/04/14 09:58:42;;;;;;;10.97;9.90;;;10.00;99.90;;;;;;5067583;28;20549;-45
2021/04/14 10:01:13;;;;;;;11.43;10.13;;;9.90;99.90;;;;;;5058456;28;20490;-48
2021/04/14 10:03:44;;;;;;;11.97;10.30;;;9.20;99.90;;;;;;5064192;28;20901;-44
2021/04/14 10:06:19;;;;;;;15.33;11.53;;;8.80;99.90;;;;;;5072903;28;20461;-47
2021/04/14 10:08:47;;;;;;;14.93;11.80;;;8.40;99.90;;;;;;5076771;28;20489;-50
2021/04/14 10:11:26;;;;;;;12.90;11.60;;;9.00;99.90;;;;;;5077565;28;20461;-44
2021/04/14 10:13:54;;;;;;;16.33;11.47;;;10.10;99.90;;;;;;5078064;28;20453;-46
2021/04/14 10:16:22;;;;;;;11.27;10.17;;;11.00;99.90;;;;;;5076875;28;20503;-48
2021/04/14 10:19:03;;;;;;;10.10;9.20;;;10.90;99.90;;;;;;5074956;28;20466;-49
2021/04/14 10:21:31;;;;;;;14.77;10.60;;;10.30;99.90;;;;;;5062909;28;20583;-47
2021/04/14 10:24:02;;;;;;;10.37;9.47;;;10.00;99.90;;;;;;5076410;28;20460;-46
2021/04/14 10:26:31;;;;;;;9.97;9.07;;;10.00;99.90;;;;;;5076858;28;20461;-45
2021/04/14 10:29:01;;;;;;;12.53;9.70;;;9.60;99.90;;;;;;5072142;28;20487;-51
2021/04/14 10:31:31;;;;;;;9.60;8.70;;;9.10;99.90;;;;;;5077609;28;20885;-45
2021/04/14 10:34:07;;;;;;;10.67;9.63;;;8.50;99.90;;;;;;5077400;28;20946;-48
2021/04/14 10:36:36;;;;;;;9.40;8.60;;;9.10;99.90;;;;;;5077544;28;20492;-47
2021/04/14 10:39:12;;;;;;;9.37;8.47;;;10.20;99.90;;;;;;5075702;28;20579;-48
2021/04/14 10:41:40;;;;;;;9.80;8.90;;;11.30;99.90;;;;;;5077126;28;20465;-51
2021/04/14 10:44:18;;;;;;;10.17;8.97;;;12.20;99.90;;;;;;5074580;28;20465;-50
2021/04/14 10:46:46;;;;;;;9.33;8.37;;;12.60;99.90;;;;;;5073876;28;20469;-46
2021/04/14 10:49:23;;;;;;;10.63;9.00;;;10.90;99.90;;;;;;5063237;28;20490;-51
2021/04/14 10:51:53;;;;;;;9.50;8.70;;;9.70;99.90;;;;;;5073115;28;20499;-46
2021/04/14 10:54:23;;;;;;;13.30;9.87;;;8.30;99.90;;;;;;5069423;28;20902;-52
2021/04/14 10:57:01;;;;;;;10.10;9.20;;;7.30;99.90;;;;;;5064220;28;20466;-45
2021/04/14 10:59:27;;;;;;;9.63;8.73;;;7.00;99.90;;;;;;5068807;28;20797;-44
2021/04/14 11:01:55;;;;;;;10.03;8.70;;;7.00;99.90;;;;;;5075335;28;20461;-45
2021/04/14 11:04:31;;;;;;;9.93;8.97;;;7.20;99.90;;;;;;5068364;28;20444;-47
2021/04/14 11:07:02;;;;;;;8.73;7.90;;;7.20;99.90;;;;;;5066598;28;20465;-46
2021/04/14 11:09:32;;;;;;;9.70;8.53;;;7.40;99.90;;;;;;5075288;28;20542;-46
2021/04/14 11:12:05;;;;;;;8.83;7.97;;;7.70;99.90;;;;;;5074072;28;20462;-46
2021/04/14 11:14:32;;;;;;;7.87;7.03;;;7.80;99.90;;;;;;5069881;28;20564;-46
2021/04/14 11:17:00;;;;;;;8.20;7.50;;;7.80;99.90;;;;;;5075884;28;20428;-50
2021/04/14 11:19:27;;;;;;;8.97;8.10;;;8.40;99.90;;;;;;5075508;28;20481;-45
2021/04/14 11:22:03;;;;;;;9.10;8.30;;;9.20;99.90;;;;;;5066002;28;20467;-47
2021/04/14 11:24:30;;;;;;;8.90;8.20;;;10.70;99.90;;;;;;5074854;28;20471;-45
2021/04/14 11:26:59;;;;;;;9.30;8.50;;;11.60;99.90;;;;;;5075303;28;20469;-48
2021/04/14 11:29:30;;;;;;;9.10;8.20;;;12.20;99.90;;;;;;5076149;28;20500;-45
2021/04/14 11:31:58;;;;;;;8.77;7.87;;;13.20;99.90;;;;;;5073722;28;20461;-54
2021/04/14 11:34:30;;;;;;;10.40;9.47;;;14.20;99.90;;;;;;5079602;28;20465;-49
2021/04/14 11:36:59;;;;;;;10.23;9.33;;;13.70;99.90;;;;;;5074575;28;20473;-52
2021/04/14 11:39:28;;;;;;;11.37;9.80;;;13.00;99.90;;;;;;5071718;28;20457;-52
2021/04/14 11:42:12;;;;;;;9.30;8.40;;;12.90;99.90;;;;;;5072044;28;20897;-53
2021/04/14 11:44:44;;;;;;;9.63;8.70;;;13.70;99.90;;;;;;5077332;28;20457;-45
2021/04/14 11:47:25;;;;;;;10.43;9.50;;;12.80;99.90;;;;;;5079106;28;20466;-47
2021/04/14 11:49:52;;;;;;;10.70;9.80;;;11.40;99.90;;;;;;5068429;28;20548;-49
2021/04/14 11:52:30;;;;;;;11.60;10.30;;;9.20;99.90;;;;;;5079617;28;20740;-50
2021/04/14 11:54:58;;;;;;;11.00;9.90;;;7.20;99.90;;;;;;5073525;28;20500;-45
2021/04/14 11:57:27;;;;;;;10.83;9.70;;;5.00;1.00;;;;;;5063470;28;20488;-46
2021/04/14 12:00:19;;;;;;;11.53;9.77;;;4.10;1.00;;;;;;5060255;28;20841;-48
2021/04/14 12:02:48;;;;;;;11.10;10.00;;;3.80;1.00;;;;;;5062187;28;20478;-52
2021/04/14 12:05:15;;;;;;;10.80;9.70;;;3.70;1.00;;;;;;5071923;28;20457;-51
2021/04/14 12:07:41;;;;;;;10.83;9.77;;;3.50;1.00;;;;;;5084442;28;20511;-53
2021/04/14 12:10:10;;;;;;;12.90;10.60;;;3.30;99.90;;;;;;5098629;28;20943;-56
2021/04/14 12:12:37;;;;;;;10.27;9.30;;;3.50;99.90;;;;;;5084640;28;20758;-52
2021/04/14 12:15:08;;;;;;;12.37;11.07;;;3.80;99.90;;;;;;5079648;28;20461;-53
2021/04/14 12:17:37;;;;;;;12.40;11.10;;;4.00;17.30;;;;;;5081957;28;20457;-58
2021/04/14 12:20:05;;;;;;;16.23;14.33;;;4.00;1.00;;;;;;5085744;28;20906;-54
2021/04/14 12:22:32;;;;;;;18.07;14.80;;;4.00;1.00;;;;;;5080364;28;20540;-60
2021/04/14 12:25:00;;;;;;;19.97;16.60;;;4.00;1.00;;;;;;5062345;28;20553;-60
2021/04/14 12:27:28;;;;;;;25.80;18.73;;;4.20;1.00;;;;;;5060120;28;20489;-50
2021/04/14 12:29:55;;;;;;;16.93;13.40;;;4.20;1.00;;;;;;5059737;28;20809;-51
2021/04/14 12:32:22;;;;;;;14.40;12.57;;;4.40;1.00;;;;;;5060060;28;20905;-52
2021/04/14 12:34:49;;;;;;;15.10;10.63;;;4.50;1.00;;;;;;5059118;28;20458;-55
2021/04/14 12:37:16;;;;;;;10.73;9.73;;;4.90;1.00;;;;;;5061070;28;20458;-49
2021/04/14 12:39:45;;;;;;;9.83;8.83;;;5.70;1.00;;;;;;5077752;28;20901;-57
2021/04/14 12:42:12;;;;;;;10.40;8.43;;;6.80;1.00;;;;;;5081883;28;20515;-59
2021/04/14 12:44:38;;;;;;;11.90;7.37;;;7.90;1.00;;;;;;5090846;28;20453;-61
2021/04/14 12:47:12;;;;;;;8.40;7.53;;;8.90;1.00;;;;;;5090145;28;20465;-61
2021/04/14 12:49:42;;;;;;;9.60;7.97;;;9.80;99.90;;;;;;5084690;28;20804;-61
2021/04/14 12:52:22;;;;;;;9.73;8.20;;;10.20;99.90;;;;;;5088233;28;20510;-60
2021/04/14 12:54:50;;;;;;;7.80;7.03;;;10.40;99.90;;;;;;5087719;28;20449;-60
2021/04/14 12:57:24;;;;;;;7.57;6.87;;;10.00;99.90;;;;;;5091865;28;20472;-60
2021/04/14 12:59:56;;;;;;;7.47;6.80;;;9.70;99.90;;;;;;5089277;28;20472;-58
2021/04/14 13:02:32;;;;;;;7.40;6.70;;;9.80;99.90;;;;;;5085297;28;20436;-59